Beverly Municipal Airport Beverly US
ICAO: KBVY
IATA: BVY
Category: Medium
Scheduled Services: No

Elevation: 107 ft
TransAlt. 18000 ft.

Airport Communications:
BOSTON APP/DEP:124.4
ATIS:119.2
CTAF:125.2
GND:121.6
TWR:125.2
UNICOM:122.95

KBVY Zoom In..

If Map Doesn't Load, Click Here

Runways:

(A) RW 09 length 4755 ft width 100 ft
LOC 110.50 / hdg 90

(B) RW 16 length 5001 ft width 100 ft
LOC 110.50 / hdg 157

(C) RW 27 length 4755 ft width 100 ft
LOC 110.50 / hdg 270

(D) RW 34 length 5001 ft width 100 ft
LOC 110.50 / hdg 337

Location; KBVY
Day. 23 / Time. 21.53 Zulu
* Altimeter: 30.23
* Temperature: 15° c. 59°f.
* Wind from: 000° Speed 00 kn.
Dewpoint: 10° c.
Visibility: 10 Statute Miles.
Clouds: Clear (automated report).

KBVY 232153Z 00000KT 10SM CLR 15/10 A3023 RMK AO2 SLP231 T01500100


Wind - Calm.

 
 
jpsmedia.com for Web Design worldairports.se 2018   terms of use